createdAt,value
2023-04-30T00:01:15.405Z,10.02
2023-04-30T00:03:42.749Z,11.27
2023-04-30T00:06:10.118Z,10.85
2023-04-30T00:08:37.480Z,9.88
2023-04-30T00:11:04.882Z,11.02
2023-04-30T00:13:33.720Z,10.93
2023-04-30T00:16:01.006Z,11.43
2023-04-30T00:18:28.337Z,12.63
2023-04-30T00:20:55.704Z,10.90
2023-04-30T00:23:23.363Z,10.98
2023-04-30T00:25:50.571Z,10.27
2023-04-30T00:28:18.164Z,10.70
2023-04-30T00:30:45.820Z,11.25
2023-04-30T00:33:13.270Z,11.00
2023-04-30T00:35:40.762Z,11.18
2023-04-30T00:38:08.288Z,11.65
2023-04-30T00:40:35.957Z,11.63
2023-04-30T00:43:03.278Z,9.68
2023-04-30T00:45:30.668Z,10.85
2023-04-30T00:47:57.961Z,9.20
2023-04-30T00:50:25.200Z,9.68
2023-04-30T00:52:52.531Z,10.18
2023-04-30T00:55:20.206Z,10.85
2023-04-30T00:57:47.466Z,9.75
2023-04-30T01:00:14.977Z,9.50
2023-04-30T01:02:42.842Z,9.82
2023-04-30T01:05:10.203Z,9.65
2023-04-30T01:07:45.117Z,9.38
2023-04-30T01:10:15.909Z,10.02
2023-04-30T01:13:04.290Z,10.20
2023-04-30T01:15:38.910Z,8.85
2023-04-30T01:18:10.172Z,9.95
2023-04-30T01:23:43.405Z,8.65
2023-04-30T01:26:37.689Z,9.68
2023-04-30T01:29:05.037Z,10.43
2023-04-30T01:31:32.455Z,10.07
2023-04-30T01:34:00.267Z,9.57
2023-04-30T01:36:31.724Z,8.77
2023-04-30T01:39:24.363Z,10.77
2023-04-30T01:42:08.147Z,10.05
2023-04-30T01:45:05.022Z,9.90
2023-04-30T01:47:41.694Z,9.68
2023-04-30T01:50:18.070Z,10.10
2023-04-30T01:52:51.986Z,9.57
2023-04-30T01:55:38.308Z,10.18
2023-04-30T01:58:06.605Z,9.57
2023-04-30T02:00:34.352Z,9.35
2023-04-30T02:03:01.969Z,9.98
2023-04-30T02:05:29.521Z,10.05
2023-04-30T02:07:56.780Z,9.20
2023-04-30T02:10:25.155Z,9.27
2023-04-30T02:12:52.866Z,9.68
2023-04-30T02:15:20.185Z,10.30
2023-04-30T02:17:47.487Z,9.20
2023-04-30T02:20:14.754Z,8.80
2023-04-30T02:22:42.124Z,9.30
2023-04-30T02:25:09.723Z,8.93
2023-04-30T02:27:37.014Z,9.07
2023-04-30T02:30:04.707Z,9.27
2023-04-30T02:32:32.199Z,9.45
2023-04-30T02:34:59.594Z,7.80
2023-04-30T02:37:26.819Z,8.50
2023-04-30T02:39:54.488Z,9.93
2023-04-30T02:42:22.044Z,8.75
2023-04-30T02:44:49.245Z,8.88
2023-04-30T02:47:16.473Z,9.13
2023-04-30T02:49:43.685Z,9.30
2023-04-30T02:52:10.935Z,9.38
2023-04-30T02:54:38.155Z,9.50
2023-04-30T02:57:05.647Z,9.07
2023-04-30T02:59:32.886Z,10.23
2023-04-30T03:02:00.102Z,9.43
2023-04-30T03:04:27.374Z,8.85
2023-04-30T03:06:54.639Z,8.75
2023-04-30T03:09:21.856Z,10.23
2023-04-30T03:11:49.366Z,9.93
2023-04-30T03:14:16.632Z,9.27
2023-04-30T03:16:43.946Z,10.07
2023-04-30T03:19:11.695Z,9.98
2023-04-30T03:21:38.886Z,10.80
2023-04-30T03:24:06.628Z,10.40
2023-04-30T03:26:33.826Z,10.90
2023-04-30T03:29:02.124Z,9.25
2023-04-30T03:31:29.513Z,10.05
2023-04-30T03:33:56.883Z,9.98
2023-04-30T03:36:24.145Z,10.68
2023-04-30T03:38:51.409Z,9.55
2023-04-30T03:41:18.926Z,9.48
2023-04-30T03:43:46.377Z,10.05
2023-04-30T03:46:13.652Z,9.38
2023-04-30T03:48:41.063Z,9.57
2023-04-30T03:51:09.494Z,8.75
2023-04-30T03:53:36.702Z,9.63
2023-04-30T03:56:04.147Z,9.38
2023-04-30T03:58:32.291Z,9.38
2023-04-30T04:00:59.521Z,9.07
2023-04-30T04:03:27.138Z,9.10
2023-04-30T04:05:54.423Z,8.38
2023-04-30T04:08:21.670Z,9.15
2023-04-30T04:10:48.955Z,8.57
2023-04-30T04:13:16.261Z,8.77
2023-04-30T04:15:43.472Z,8.90
2023-04-30T04:18:10.782Z,7.97
2023-04-30T04:20:38.325Z,8.40
2023-04-30T04:23:05.569Z,8.55
2023-04-30T04:25:33.452Z,8.55
2023-04-30T04:28:00.770Z,7.15
2023-04-30T04:30:28.104Z,7.35
2023-04-30T04:32:55.470Z,7.30
2023-04-30T04:35:22.852Z,7.97
2023-04-30T04:37:50.075Z,7.40
2023-04-30T04:40:17.432Z,6.55
2023-04-30T04:42:44.700Z,6.45
2023-04-30T04:45:12.188Z,6.85
2023-04-30T04:47:39.626Z,6.85
2023-04-30T04:50:07.798Z,6.93
2023-04-30T04:52:35.146Z,7.40
2023-04-30T04:55:02.400Z,7.28
2023-04-30T04:57:29.722Z,7.82
2023-04-30T04:59:57.247Z,5.80
2023-04-30T05:02:24.687Z,6.50
2023-04-30T05:04:52.066Z,6.15
2023-04-30T05:07:19.403Z,6.47
2023-04-30T05:09:47.051Z,5.85
2023-04-30T05:12:14.888Z,5.47
2023-04-30T05:14:43.039Z,5.60
2023-04-30T05:17:10.341Z,5.45
2023-04-30T05:19:37.551Z,5.70
2023-04-30T05:22:05.420Z,5.22
2023-04-30T05:24:32.894Z,5.38
2023-04-30T05:27:00.153Z,5.25
2023-04-30T05:29:27.376Z,5.10
2023-04-30T05:31:54.725Z,4.75
2023-04-30T05:34:22.014Z,4.40
2023-04-30T05:36:49.452Z,5.30
2023-04-30T05:39:16.732Z,5.00
2023-04-30T05:41:44.027Z,4.47
2023-04-30T05:44:11.214Z,4.57
2023-04-30T05:46:38.485Z,4.70
2023-04-30T05:49:05.753Z,4.78
2023-04-30T05:51:33.076Z,4.65
2023-04-30T05:54:00.525Z,5.55
2023-04-30T05:56:27.785Z,4.88
2023-04-30T05:58:55.243Z,5.18
2023-04-30T06:01:23.274Z,4.75
2023-04-30T06:03:50.704Z,5.30
2023-04-30T06:06:17.977Z,5.57
2023-04-30T06:08:45.713Z,5.03
2023-04-30T06:11:13.329Z,5.10
2023-04-30T06:13:40.628Z,5.20
2023-04-30T06:16:08.456Z,4.93
2023-04-30T06:18:36.045Z,4.32
2023-04-30T06:21:03.536Z,4.63
2023-04-30T06:23:30.854Z,3.55
2023-04-30T06:25:58.056Z,4.22
2023-04-30T06:28:25.395Z,3.85
2023-04-30T06:30:54.203Z,3.85
2023-04-30T06:33:21.715Z,4.65
2023-04-30T06:35:50.915Z,4.05
2023-04-30T06:38:18.342Z,4.22
2023-04-30T06:40:45.611Z,4.45
2023-04-30T06:43:12.816Z,4.35
2023-04-30T06:45:40.393Z,4.55
2023-04-30T06:48:08.031Z,4.53
2023-04-30T06:50:35.436Z,4.65
2023-04-30T06:53:02.920Z,4.88
2023-04-30T06:55:30.328Z,5.32
2023-04-30T06:57:58.014Z,3.95
2023-04-30T07:00:25.453Z,4.18
2023-04-30T07:02:52.955Z,4.20
2023-04-30T07:05:20.315Z,3.65
2023-04-30T07:07:47.576Z,3.95
2023-04-30T07:10:14.826Z,4.57
2023-04-30T07:12:42.148Z,4.10
2023-04-30T07:15:09.647Z,4.38
2023-04-30T07:17:37.361Z,4.38
2023-04-30T07:20:05.301Z,4.03
2023-04-30T07:22:32.686Z,3.90
2023-04-30T07:25:00.699Z,3.75
2023-04-30T07:27:28.353Z,3.55
2023-04-30T07:29:56.330Z,4.32
2023-04-30T07:32:26.916Z,4.05
2023-04-30T07:34:54.194Z,4.03
2023-04-30T07:37:21.955Z,4.03
2023-04-30T07:39:49.239Z,3.70
2023-04-30T07:42:16.479Z,3.92
2023-04-30T07:44:43.928Z,4.00
2023-04-30T07:47:11.231Z,3.45
2023-04-30T07:49:38.465Z,3.50
2023-04-30T07:52:06.296Z,3.72
2023-04-30T07:54:36.482Z,4.05
2023-04-30T07:57:03.861Z,3.50
2023-04-30T07:59:31.620Z,3.42
2023-04-30T08:01:59.105Z,3.40
2023-04-30T08:04:26.483Z,3.33
2023-04-30T08:06:53.875Z,3.95
2023-04-30T08:09:21.246Z,3.25
2023-04-30T08:11:48.490Z,3.97
2023-04-30T08:14:15.782Z,3.70
2023-04-30T08:16:43.038Z,3.33
2023-04-30T08:19:10.406Z,3.70
2023-04-30T08:21:37.917Z,4.28
2023-04-30T08:24:05.256Z,4.22
2023-04-30T08:26:32.583Z,4.00
2023-04-30T08:28:59.805Z,4.28
2023-04-30T08:31:27.089Z,3.53
2023-04-30T08:33:54.300Z,3.97
2023-04-30T08:36:21.735Z,4.03
2023-04-30T08:38:49.175Z,4.68
2023-04-30T08:41:16.470Z,4.55
2023-04-30T08:43:45.028Z,4.03
2023-04-30T08:46:16.681Z,4.60
2023-04-30T08:48:43.949Z,3.53
2023-04-30T08:51:11.165Z,4.30
2023-04-30T08:53:38.611Z,4.25
2023-04-30T08:56:06.214Z,3.75
2023-04-30T08:58:33.680Z,4.00
2023-04-30T09:01:01.499Z,4.65
2023-04-30T09:03:28.979Z,4.80
2023-04-30T09:05:57.151Z,4.03
2023-04-30T09:08:44.663Z,4.65
2023-04-30T09:11:28.560Z,4.40
2023-04-30T09:13:57.415Z,4.03
2023-04-30T09:16:25.740Z,5.03
2023-04-30T09:18:53.093Z,5.72
2023-04-30T09:21:36.206Z,6.95
2023-04-30T09:24:04.609Z,6.22
2023-04-30T09:26:40.958Z,7.30
2023-04-30T09:29:08.438Z,8.27
2023-04-30T09:31:36.823Z,7.90
2023-04-30T09:34:04.596Z,8.57
2023-04-30T09:36:32.296Z,10.00
2023-04-30T09:39:14.788Z,13.43
2023-04-30T09:41:42.355Z,11.77
2023-04-30T09:44:25.875Z,12.93
2023-04-30T09:46:53.195Z,14.55
2023-04-30T09:49:20.919Z,14.88
2023-04-30T09:52:07.607Z,16.30
2023-04-30T09:54:34.827Z,13.93
2023-04-30T09:57:02.630Z,13.02
2023-04-30T09:59:39.497Z,10.40
2023-04-30T10:02:07.668Z,11.45
2023-04-30T10:04:36.646Z,11.38
2023-04-30T10:07:10.271Z,9.15
2023-04-30T10:09:47.242Z,10.20
2023-04-30T10:12:15.950Z,9.52
2023-04-30T10:14:48.362Z,9.52
2023-04-30T10:17:17.341Z,8.23
2023-04-30T10:19:48.011Z,6.40
2023-04-30T10:22:15.367Z,6.40
2023-04-30T10:24:43.646Z,5.55
2023-04-30T10:27:10.966Z,5.82
2023-04-30T10:29:38.220Z,5.95
2023-04-30T10:32:05.634Z,5.25
2023-04-30T10:34:39.361Z,5.90
2023-04-30T10:37:15.095Z,5.28
2023-04-30T10:39:42.368Z,5.75
2023-04-30T10:42:10.481Z,5.57
2023-04-30T10:44:37.775Z,5.70
2023-04-30T10:47:07.525Z,6.25
2023-04-30T10:49:35.128Z,6.53
2023-04-30T10:52:04.318Z,7.20
2023-04-30T10:54:33.466Z,5.88
2023-04-30T10:57:20.240Z,5.38
2023-04-30T11:00:07.966Z,6.63
2023-04-30T11:02:45.144Z,5.57
2023-04-30T11:05:13.872Z,4.97
2023-04-30T11:07:57.615Z,4.28
2023-04-30T11:10:26.737Z,5.03
2023-04-30T11:12:55.033Z,5.13
2023-04-30T11:15:25.402Z,5.32
2023-04-30T11:17:56.528Z,5.50
2023-04-30T11:20:24.182Z,5.10
2023-04-30T11:23:11.117Z,4.82
2023-04-30T11:25:42.404Z,6.95
2023-04-30T11:28:23.899Z,10.52
2023-04-30T11:33:26.890Z,6.60
2023-04-30T11:35:55.879Z,7.03
2023-04-30T11:38:27.476Z,6.90
2023-04-30T11:43:26.991Z,6.72
2023-04-30T11:46:13.913Z,6.30
2023-04-30T11:48:44.993Z,5.40
2023-04-30T11:51:20.331Z,5.13
2023-04-30T11:53:48.885Z,4.78
2023-04-30T11:56:25.758Z,5.22
2023-04-30T11:58:53.489Z,5.65
2023-04-30T12:01:21.128Z,5.20
2023-04-30T12:03:50.241Z,5.60
2023-04-30T12:06:28.417Z,5.75
2023-04-30T12:09:00.133Z,5.60
2023-04-30T12:11:31.559Z,5.07
2023-04-30T12:14:05.343Z,5.75
2023-04-30T12:16:52.629Z,4.75
2023-04-30T12:19:21.235Z,4.85
2023-04-30T12:21:49.038Z,4.05
2023-04-30T12:24:17.708Z,4.55
2023-04-30T12:26:45.286Z,4.70
2023-04-30T12:29:16.485Z,7.72
2023-04-30T12:31:44.030Z,8.90
2023-04-30T12:34:14.887Z,11.63
2023-04-30T12:36:45.023Z,7.20
2023-04-30T12:39:13.594Z,5.00
2023-04-30T12:41:42.189Z,4.82
2023-04-30T12:44:26.182Z,4.95
2023-04-30T12:46:56.618Z,9.25
2023-04-30T12:49:30.584Z,8.70
2023-04-30T12:52:04.025Z,9.13
2023-04-30T12:54:32.657Z,7.65
2023-04-30T12:57:03.989Z,7.63
2023-04-30T12:59:32.662Z,5.78
2023-04-30T13:02:29.673Z,5.82
2023-04-30T13:04:57.146Z,5.47
2023-04-30T13:07:24.525Z,5.68
2023-04-30T13:09:51.769Z,5.32
2023-04-30T13:12:20.400Z,5.45
2023-04-30T13:14:47.721Z,4.68
2023-04-30T13:17:14.998Z,4.90
2023-04-30T13:19:42.617Z,4.55
2023-04-30T13:22:09.932Z,4.35
2023-04-30T13:24:37.413Z,4.05
2023-04-30T13:27:04.775Z,5.10
2023-04-30T13:29:32.838Z,5.55
2023-04-30T13:32:00.143Z,5.95
2023-04-30T13:34:27.426Z,7.82
2023-04-30T13:36:55.211Z,8.40
2023-04-30T13:39:22.531Z,5.60
2023-04-30T13:41:49.815Z,5.43
2023-04-30T13:44:17.403Z,3.47
2023-04-30T13:46:45.397Z,3.30
2023-04-30T13:49:12.706Z,3.92
2023-04-30T13:51:40.077Z,3.95
2023-04-30T13:54:07.425Z,4.47
2023-04-30T13:56:34.958Z,5.20
2023-04-30T13:59:03.056Z,6.13
2023-04-30T14:01:32.792Z,7.70
2023-04-30T14:04:00.381Z,7.50
2023-04-30T14:06:29.276Z,9.85
2023-04-30T14:08:56.902Z,10.35
2023-04-30T14:11:24.454Z,9.68
2023-04-30T14:13:51.686Z,6.88
2023-04-30T14:16:19.879Z,5.78
2023-04-30T14:18:47.547Z,6.00
2023-04-30T14:21:14.806Z,8.18
2023-04-30T14:23:42.037Z,4.82
2023-04-30T14:26:09.266Z,4.63
2023-04-30T14:28:36.558Z,5.20
2023-04-30T14:31:04.525Z,4.60
2023-04-30T14:33:32.199Z,3.33
2023-04-30T14:36:02.218Z,4.68
2023-04-30T14:38:29.698Z,4.63
2023-04-30T14:40:57.041Z,5.10
2023-04-30T14:43:24.283Z,5.25
2023-04-30T14:45:54.664Z,5.13
2023-04-30T14:48:22.115Z,5.70
2023-04-30T14:50:49.410Z,7.00
2023-04-30T14:53:17.136Z,6.90
2023-04-30T14:55:44.558Z,6.10
2023-04-30T14:58:12.327Z,5.43
2023-04-30T15:00:39.560Z,4.75
2023-04-30T15:03:06.940Z,4.32
2023-04-30T15:05:34.473Z,4.38
2023-04-30T15:08:02.043Z,4.35
2023-04-30T15:10:29.556Z,3.75
2023-04-30T15:12:57.215Z,4.13
2023-04-30T15:15:28.072Z,4.35
2023-04-30T15:17:58.690Z,4.10
2023-04-30T15:20:27.030Z,3.00
2023-04-30T15:22:55.065Z,2.50
2023-04-30T15:25:24.100Z,4.18
2023-04-30T15:27:54.150Z,4.28
2023-04-30T15:30:24.085Z,3.60
2023-04-30T15:32:51.518Z,1.90
2023-04-30T15:35:18.739Z,2.25
2023-04-30T15:37:45.974Z,3.33
2023-04-30T15:40:15.609Z,3.50
2023-04-30T15:42:44.174Z,2.85
2023-04-30T15:45:12.166Z,2.53
2023-04-30T15:47:39.802Z,1.90
2023-04-30T15:50:08.043Z,2.30
2023-04-30T15:52:37.540Z,2.33
2023-04-30T15:55:06.617Z,4.15
2023-04-30T15:57:34.015Z,3.13
2023-04-30T16:00:01.275Z,3.75
2023-04-30T16:02:30.281Z,2.85
2023-04-30T16:04:57.581Z,3.60
2023-04-30T16:07:24.800Z,4.93
2023-04-30T16:09:52.644Z,4.00
2023-04-30T16:12:20.118Z,3.20
2023-04-30T16:14:47.343Z,2.35
2023-04-30T16:17:14.562Z,2.65
2023-04-30T16:19:42.037Z,2.67
2023-04-30T16:22:09.316Z,2.60
2023-04-30T16:24:36.943Z,2.45
2023-04-30T16:27:04.229Z,2.55
2023-04-30T16:29:31.609Z,3.85
2023-04-30T16:31:58.961Z,5.00
2023-04-30T16:34:26.308Z,3.97
2023-04-30T16:36:53.572Z,4.50
2023-04-30T16:39:20.936Z,4.43
2023-04-30T16:41:48.217Z,3.67
2023-04-30T16:44:15.632Z,4.63
2023-04-30T16:46:42.972Z,3.60
2023-04-30T16:49:10.435Z,4.00
2023-04-30T16:51:37.853Z,4.45
2023-04-30T16:54:05.100Z,3.97
2023-04-30T16:56:32.713Z,3.25
2023-04-30T16:58:59.937Z,5.13
2023-04-30T17:01:27.380Z,6.88
2023-04-30T17:03:55.510Z,4.00
2023-04-30T17:06:23.335Z,3.08
2023-04-30T17:08:53.101Z,2.90
2023-04-30T17:11:22.871Z,3.17
2023-04-30T17:13:50.347Z,3.50
2023-04-30T17:16:17.620Z,2.58
2023-04-30T17:18:44.922Z,3.38
2023-04-30T17:21:12.556Z,2.80
2023-04-30T17:23:40.444Z,3.42
2023-04-30T17:26:07.724Z,3.15
2023-04-30T17:28:35.041Z,2.97
2023-04-30T17:31:06.627Z,2.92
2023-04-30T17:33:34.119Z,2.95
2023-04-30T17:36:01.426Z,2.90
2023-04-30T17:38:29.151Z,3.30
2023-04-30T17:40:57.643Z,4.03
2023-04-30T17:43:25.108Z,5.05
2023-04-30T17:45:53.467Z,5.07
2023-04-30T17:48:20.941Z,5.43
2023-04-30T17:50:48.232Z,6.07
2023-04-30T17:53:15.497Z,6.35
2023-04-30T17:55:42.811Z,6.53
2023-04-30T17:58:11.551Z,6.95
2023-04-30T18:00:39.449Z,6.95
2023-04-30T18:03:06.888Z,5.40
2023-04-30T18:05:35.685Z,5.28
2023-04-30T18:08:03.394Z,4.75
2023-04-30T18:10:31.208Z,4.93
2023-04-30T18:12:58.879Z,4.05
2023-04-30T18:15:27.108Z,4.32
2023-04-30T18:17:54.391Z,4.57
2023-04-30T18:20:22.126Z,2.85
2023-04-30T18:22:49.548Z,2.85
2023-04-30T18:25:18.630Z,2.55
2023-04-30T18:27:46.003Z,2.00
2023-04-30T18:30:13.428Z,2.50
2023-04-30T18:32:41.940Z,2.53
2023-04-30T18:35:09.837Z,2.67
2023-04-30T18:37:37.141Z,3.17
2023-04-30T18:40:05.160Z,2.30
2023-04-30T18:42:33.399Z,2.75
2023-04-30T18:45:01.257Z,2.63
2023-04-30T18:47:28.604Z,3.13
2023-04-30T18:49:56.346Z,2.85
2023-04-30T18:52:23.982Z,2.90
2023-04-30T18:54:51.282Z,2.83
2023-04-30T18:57:18.693Z,3.33
2023-04-30T18:59:46.132Z,2.90
2023-04-30T19:02:14.143Z,3.15
2023-04-30T19:04:41.386Z,2.58
2023-04-30T19:07:09.006Z,2.53
2023-04-30T19:09:37.029Z,4.38
2023-04-30T19:12:04.507Z,6.70
2023-04-30T19:14:32.840Z,6.68
2023-04-30T19:17:00.983Z,5.47
2023-04-30T19:19:28.364Z,5.45
2023-04-30T19:21:55.773Z,3.03
2023-04-30T19:24:25.106Z,2.40
2023-04-30T19:26:52.476Z,2.20
2023-04-30T19:29:19.696Z,2.20
2023-04-30T19:31:47.117Z,2.15
2023-04-30T19:34:14.499Z,1.65
2023-04-30T19:36:43.894Z,2.20
2023-04-30T19:39:11.862Z,1.88
2023-04-30T19:41:39.252Z,2.10
2023-04-30T19:44:07.946Z,2.17
2023-04-30T19:46:35.638Z,2.10
2023-04-30T19:49:03.992Z,2.35
2023-04-30T19:51:31.950Z,2.20
2023-04-30T19:53:59.351Z,3.45
2023-04-30T19:56:26.638Z,2.90
2023-04-30T19:58:53.995Z,3.22
2023-04-30T20:01:21.242Z,2.42
2023-04-30T20:03:48.790Z,2.30
2023-04-30T20:06:16.117Z,2.65
2023-04-30T20:08:43.511Z,2.97
2023-04-30T20:11:10.780Z,2.80
2023-04-30T20:13:38.156Z,2.20
2023-04-30T20:16:05.641Z,1.98
2023-04-30T20:18:33.164Z,2.30
2023-04-30T20:21:00.424Z,1.90
2023-04-30T20:23:27.786Z,1.88
2023-04-30T20:25:55.296Z,2.40
2023-04-30T20:28:22.774Z,2.30
2023-04-30T20:30:49.992Z,3.05
2023-04-30T20:33:18.826Z,2.88
2023-04-30T20:35:47.238Z,2.65
2023-04-30T20:38:16.344Z,3.17
2023-04-30T20:40:45.591Z,3.17
2023-04-30T20:43:13.924Z,2.90
2023-04-30T20:45:42.780Z,2.40
2023-04-30T20:48:10.179Z,3.17
2023-04-30T20:50:37.603Z,3.00
2023-04-30T20:53:04.994Z,2.80
2023-04-30T20:55:32.545Z,2.47
2023-04-30T20:57:59.832Z,2.60
2023-04-30T21:00:27.758Z,2.65
2023-04-30T21:02:55.281Z,2.30
2023-04-30T21:05:22.590Z,2.35
2023-04-30T21:07:49.860Z,2.20
2023-04-30T21:10:17.262Z,2.10
2023-04-30T21:12:44.521Z,2.05
2023-04-30T21:15:12.188Z,2.40
2023-04-30T21:17:39.546Z,2.28
2023-04-30T21:20:07.523Z,2.60
2023-04-30T21:22:35.017Z,2.22
2023-04-30T21:25:02.534Z,2.33
2023-04-30T21:27:29.963Z,2.90
2023-04-30T21:29:57.378Z,2.70
2023-04-30T21:32:24.923Z,2.33
2023-04-30T21:34:52.212Z,2.58
2023-04-30T21:37:19.493Z,2.50
2023-04-30T21:39:46.742Z,2.33
2023-04-30T21:42:14.036Z,2.88
2023-04-30T21:44:41.255Z,2.50
2023-04-30T21:47:08.731Z,2.90
2023-04-30T21:49:36.080Z,2.30
2023-04-30T21:52:07.870Z,2.67
2023-04-30T21:54:35.159Z,2.33
2023-04-30T21:57:02.706Z,2.78
2023-04-30T21:59:30.018Z,2.50
2023-04-30T22:01:58.190Z,2.53
2023-04-30T22:04:26.306Z,2.92
2023-04-30T22:06:54.124Z,2.58
2023-04-30T22:09:21.533Z,3.15
2023-04-30T22:11:49.677Z,2.50
2023-04-30T22:14:17.043Z,2.70
2023-04-30T22:16:44.426Z,2.47
2023-04-30T22:19:11.680Z,2.22
2023-04-30T22:21:38.949Z,2.83
2023-04-30T22:24:06.991Z,2.80
2023-04-30T22:26:34.223Z,2.60
2023-04-30T22:29:01.590Z,2.78
2023-04-30T22:31:29.320Z,3.00
2023-04-30T22:33:56.643Z,2.15
2023-04-30T22:36:23.876Z,2.60
2023-04-30T22:38:51.179Z,2.33
2023-04-30T22:41:18.621Z,2.60
2023-04-30T22:43:46.705Z,2.33
2023-04-30T22:46:14.197Z,2.15
2023-04-30T22:48:42.602Z,2.03
2023-04-30T22:51:09.907Z,2.00
2023-04-30T22:53:37.553Z,2.45
2023-04-30T22:56:04.998Z,2.75
2023-04-30T22:58:32.290Z,2.45
2023-04-30T23:00:59.688Z,2.65
2023-04-30T23:03:27.066Z,2.50
2023-04-30T23:05:54.333Z,2.30
2023-04-30T23:08:21.666Z,2.53
2023-04-30T23:10:48.968Z,2.80
2023-04-30T23:13:18.629Z,2.55
2023-04-30T23:15:46.042Z,2.63
2023-04-30T23:18:13.390Z,2.72
2023-04-30T23:20:40.902Z,2.42
2023-04-30T23:23:08.251Z,2.80
2023-04-30T23:25:35.620Z,2.38
2023-04-30T23:28:04.207Z,2.35
2023-04-30T23:30:31.546Z,2.30
2023-04-30T23:32:58.771Z,2.38
2023-04-30T23:35:26.138Z,2.55
2023-04-30T23:37:53.429Z,2.40
2023-04-30T23:40:20.744Z,2.50
2023-04-30T23:42:48.151Z,2.30
2023-04-30T23:45:15.476Z,2.30
2023-04-30T23:47:42.876Z,2.03
2023-04-30T23:50:11.137Z,2.63
2023-04-30T23:52:39.033Z,2.75
2023-04-30T23:55:06.805Z,2.53
2023-04-30T23:57:34.208Z,2.38
